sensor_id;sensor_type;location;lat;lon;timestamp;pressure;altitude;pressure_sealevel;temperature;humidity
72285;BME280;60220;53.552;10.092;2023-05-23T00:01:00;101061.25;;;20.32;75.36
72285;BME280;60220;53.552;10.092;2023-05-23T00:03:27;101060.19;;;19.78;75.57
72285;BME280;60220;53.552;10.092;2023-05-23T00:05:55;101068.72;;;19.87;76.73
72285;BME280;60220;53.552;10.092;2023-05-23T00:08:23;101064.38;;;19.84;75.94
72285;BME280;60220;53.552;10.092;2023-05-23T00:10:50;101062.94;;;20.14;75.93
72285;BME280;60220;53.552;10.092;2023-05-23T00:13:18;101052.13;;;20.17;75.30
72285;BME280;60220;53.552;10.092;2023-05-23T00:15:49;101045.66;;;20.04;73.88
72285;BME280;60220;53.552;10.092;2023-05-23T00:18:16;101050.06;;;19.07;78.23
72285;BME280;60220;53.552;10.092;2023-05-23T00:20:44;101050.69;;;19.73;76.95
72285;BME280;60220;53.552;10.092;2023-05-23T00:23:11;101052.72;;;19.48;78.26
72285;BME280;60220;53.552;10.092;2023-05-23T00:25:44;101042.75;;;19.12;78.00
72285;BME280;60220;53.552;10.092;2023-05-23T00:28:13;101035.81;;;18.68;80.42
72285;BME280;60220;53.552;10.092;2023-05-23T00:30:43;101036.97;;;18.82;80.72
72285;BME280;60220;53.552;10.092;2023-05-23T00:33:10;101031.41;;;19.87;77.43
72285;BME280;60220;53.552;10.092;2023-05-23T00:35:40;101037.69;;;19.47;78.10
72285;BME280;60220;53.552;10.092;2023-05-23T00:38:06;101038.75;;;19.43;76.85
72285;BME280;60220;53.552;10.092;2023-05-23T00:40:33;101042.34;;;19.62;76.20
72285;BME280;60220;53.552;10.092;2023-05-23T00:43:00;101041.25;;;18.85;78.63
72285;BME280;60220;53.552;10.092;2023-05-23T00:45:26;101036.28;;;18.77;80.46
72285;BME280;60220;53.552;10.092;2023-05-23T00:47:55;101040.75;;;18.77;80.58
72285;BME280;60220;53.552;10.092;2023-05-23T00:50:23;101032.47;;;18.83;80.73
72285;BME280;60220;53.552;10.092;2023-05-23T00:52:55;101030.75;;;19.43;79.29
72285;BME280;60220;53.552;10.092;2023-05-23T00:55:23;101032.69;;;19.78;77.91
72285;BME280;60220;53.552;10.092;2023-05-23T00:57:51;101024.63;;;19.98;75.20
72285;BME280;60220;53.552;10.092;2023-05-23T01:00:20;101031.44;;;19.27;76.52
72285;BME280;60220;53.552;10.092;2023-05-23T01:02:47;101029.81;;;19.23;78.84
72285;BME280;60220;53.552;10.092;2023-05-23T01:05:20;101028.91;;;19.24;78.51
72285;BME280;60220;53.552;10.092;2023-05-23T01:07:49;101025.25;;;19.47;77.45
72285;BME280;60220;53.552;10.092;2023-05-23T01:10:18;101013.47;;;19.32;77.21
72285;BME280;60220;53.552;10.092;2023-05-23T01:12:57;101016.41;;;19.06;78.13
72285;BME280;60220;53.552;10.092;2023-05-23T01:15:36;101023.97;;;18.95;78.92
72285;BME280;60220;53.552;10.092;2023-05-23T01:18:07;101012.00;;;18.85;79.45
72285;BME280;60220;53.552;10.092;2023-05-23T01:20:40;101009.09;;;18.91;78.54
72285;BME280;60220;53.552;10.092;2023-05-23T01:23:35;101002.28;;;18.64;79.50
72285;BME280;60220;53.552;10.092;2023-05-23T01:26:26;101004.94;;;18.84;79.81
72285;BME280;60220;53.552;10.092;2023-05-23T01:29:03;100996.56;;;19.13;78.81
72285;BME280;60220;53.552;10.092;2023-05-23T01:31:35;100999.34;;;19.30;76.89
72285;BME280;60220;53.552;10.092;2023-05-23T01:34:04;100997.91;;;18.83;78.82
72285;BME280;60220;53.552;10.092;2023-05-23T01:36:32;100997.53;;;18.92;79.14
72285;BME280;60220;53.552;10.092;2023-05-23T01:39:00;100993.75;;;19.57;78.62
72285;BME280;60220;53.552;10.092;2023-05-23T01:41:27;100982.59;;;19.08;78.30
72285;BME280;60220;53.552;10.092;2023-05-23T01:43:56;100996.41;;;19.37;78.68
72285;BME280;60220;53.552;10.092;2023-05-23T01:46:25;100994.97;;;19.09;78.34
72285;BME280;60220;53.552;10.092;2023-05-23T01:48:53;100994.56;;;18.98;79.05
72285;BME280;60220;53.552;10.092;2023-05-23T01:51:20;100992.00;;;19.56;77.83
72285;BME280;60220;53.552;10.092;2023-05-23T01:53:48;100996.78;;;18.88;79.85
72285;BME280;60220;53.552;10.092;2023-05-23T01:56:17;101003.75;;;19.11;79.85
72285;BME280;60220;53.552;10.092;2023-05-23T01:58:46;100999.63;;;19.24;78.16
72285;BME280;60220;53.552;10.092;2023-05-23T02:01:15;101004.50;;;18.09;82.67
72285;BME280;60220;53.552;10.092;2023-05-23T02:03:46;101005.69;;;18.02;84.02
72285;BME280;60220;53.552;10.092;2023-05-23T02:06:13;101002.09;;;17.56;83.83
72285;BME280;60220;53.552;10.092;2023-05-23T02:08:39;101007.25;;;17.38;88.54
72285;BME280;60220;53.552;10.092;2023-05-23T02:11:06;101006.38;;;17.84;87.09
72285;BME280;60220;53.552;10.092;2023-05-23T02:13:35;101008.44;;;17.99;86.07
72285;BME280;60220;53.552;10.092;2023-05-23T02:16:01;101017.91;;;17.36;87.10
72285;BME280;60220;53.552;10.092;2023-05-23T02:18:28;101018.56;;;17.43;86.92
72285;BME280;60220;53.552;10.092;2023-05-23T02:20:56;101024.13;;;17.58;85.02
72285;BME280;60220;53.552;10.092;2023-05-23T02:23:23;101020.44;;;17.39;85.29
72285;BME280;60220;53.552;10.092;2023-05-23T02:25:50;101021.72;;;17.52;84.89
72285;BME280;60220;53.552;10.092;2023-05-23T02:28:16;101020.41;;;17.16;84.89
72285;BME280;60220;53.552;10.092;2023-05-23T02:30:43;101022.66;;;17.75;84.18
72285;BME280;60220;53.552;10.092;2023-05-23T02:33:11;101022.44;;;17.57;83.64
72285;BME280;60220;53.552;10.092;2023-05-23T02:35:38;101013.03;;;17.95;82.19
72285;BME280;60220;53.552;10.092;2023-05-23T02:38:06;101015.88;;;17.68;81.80
72285;BME280;60220;53.552;10.092;2023-05-23T02:40:33;101024.03;;;17.38;83.42
72285;BME280;60220;53.552;10.092;2023-05-23T02:42:59;101019.72;;;17.59;82.44
72285;BME280;60220;53.552;10.092;2023-05-23T02:45:26;101023.06;;;17.16;84.02
72285;BME280;60220;53.552;10.092;2023-05-23T02:47:55;101024.47;;;17.26;83.59
72285;BME280;60220;53.552;10.092;2023-05-23T02:50:22;101013.34;;;17.40;82.71
72285;BME280;60220;53.552;10.092;2023-05-23T02:52:48;101017.06;;;17.11;83.43
72285;BME280;60220;53.552;10.092;2023-05-23T02:55:19;101013.53;;;16.59;84.76
72285;BME280;60220;53.552;10.092;2023-05-23T02:57:48;101012.38;;;16.40;86.19
72285;BME280;60220;53.552;10.092;2023-05-23T03:00:16;101014.72;;;16.49;86.24
72285;BME280;60220;53.552;10.092;2023-05-23T03:02:43;101017.28;;;16.52;86.08
72285;BME280;60220;53.552;10.092;2023-05-23T03:05:12;101020.91;;;17.02;84.51
72285;BME280;60220;53.552;10.092;2023-05-23T03:07:39;101020.19;;;16.72;83.81
72285;BME280;60220;53.552;10.092;2023-05-23T03:10:06;101019.88;;;17.06;83.37
72285;BME280;60220;53.552;10.092;2023-05-23T03:12:35;101022.69;;;17.02;83.89
72285;BME280;60220;53.552;10.092;2023-05-23T03:15:02;101021.16;;;17.19;81.65
72285;BME280;60220;53.552;10.092;2023-05-23T03:17:29;101028.09;;;17.48;80.83
72285;BME280;60220;53.552;10.092;2023-05-23T03:19:56;101028.47;;;17.62;81.05
72285;BME280;60220;53.552;10.092;2023-05-23T03:22:23;101032.94;;;17.84;80.13
72285;BME280;60220;53.552;10.092;2023-05-23T03:24:50;101029.59;;;17.31;80.82
72285;BME280;60220;53.552;10.092;2023-05-23T03:27:17;101026.00;;;17.33;81.37
72285;BME280;60220;53.552;10.092;2023-05-23T03:29:44;101017.03;;;17.60;80.04
72285;BME280;60220;53.552;10.092;2023-05-23T03:32:12;101016.91;;;17.63;80.81
72285;BME280;60220;53.552;10.092;2023-05-23T03:34:39;101005.88;;;17.74;79.94
72285;BME280;60220;53.552;10.092;2023-05-23T03:37:05;101017.38;;;17.98;78.25
72285;BME280;60220;53.552;10.092;2023-05-23T03:39:32;101013.88;;;17.49;79.78
72285;BME280;60220;53.552;10.092;2023-05-23T03:41:59;101019.50;;;17.65;78.91
72285;BME280;60220;53.552;10.092;2023-05-23T03:44:25;101016.06;;;17.63;78.09
72285;BME280;60220;53.552;10.092;2023-05-23T03:46:53;101020.59;;;17.83;78.35
72285;BME280;60220;53.552;10.092;2023-05-23T03:49:20;101019.28;;;16.98;79.87
72285;BME280;60220;53.552;10.092;2023-05-23T03:51:50;101019.56;;;17.39;79.72
72285;BME280;60220;53.552;10.092;2023-05-23T03:54:16;101018.41;;;16.98;80.14
72285;BME280;60220;53.552;10.092;2023-05-23T03:56:43;101014.44;;;16.85;81.04
72285;BME280;60220;53.552;10.092;2023-05-23T03:59:10;101014.13;;;16.41;82.68
72285;BME280;60220;53.552;10.092;2023-05-23T04:01:37;101020.13;;;16.99;81.39
72285;BME280;60220;53.552;10.092;2023-05-23T04:04:05;101009.75;;;17.66;79.12
72285;BME280;60220;53.552;10.092;2023-05-23T04:06:32;101017.69;;;17.42;78.63
72285;BME280;60220;53.552;10.092;2023-05-23T04:08:59;101014.78;;;17.73;78.47
72285;BME280;60220;53.552;10.092;2023-05-23T04:11:27;101016.56;;;17.73;77.02
72285;BME280;60220;53.552;10.092;2023-05-23T04:13:54;101022.66;;;17.75;75.88
72285;BME280;60220;53.552;10.092;2023-05-23T04:16:21;101024.94;;;17.37;77.52
72285;BME280;60220;53.552;10.092;2023-05-23T04:18:48;101026.91;;;17.07;80.26
72285;BME280;60220;53.552;10.092;2023-05-23T04:21:17;101045.09;;;17.18;79.49
72285;BME280;60220;53.552;10.092;2023-05-23T04:23:44;101030.25;;;16.61;80.32
72285;BME280;60220;53.552;10.092;2023-05-23T04:26:11;101033.19;;;16.52;81.32
72285;BME280;60220;53.552;10.092;2023-05-23T04:28:38;101030.94;;;16.40;81.11
72285;BME280;60220;53.552;10.092;2023-05-23T04:31:05;101031.53;;;16.22;82.50
72285;BME280;60220;53.552;10.092;2023-05-23T04:33:34;101039.44;;;16.50;82.78
72285;BME280;60220;53.552;10.092;2023-05-23T04:36:04;101034.34;;;16.16;82.99
72285;BME280;60220;53.552;10.092;2023-05-23T04:38:37;101038.31;;;16.03;83.04
72285;BME280;60220;53.552;10.092;2023-05-23T04:41:05;101034.41;;;16.42;82.81
72285;BME280;60220;53.552;10.092;2023-05-23T04:43:34;101044.50;;;16.02;83.02
72285;BME280;60220;53.552;10.092;2023-05-23T04:46:01;101031.28;;;16.02;82.92
72285;BME280;60220;53.552;10.092;2023-05-23T04:48:28;101042.81;;;15.39;85.42
72285;BME280;60220;53.552;10.092;2023-05-23T04:50:56;101045.81;;;16.16;84.82
72285;BME280;60220;53.552;10.092;2023-05-23T04:53:26;101043.91;;;15.93;84.40
72285;BME280;60220;53.552;10.092;2023-05-23T04:55:54;101036.19;;;16.42;82.37
72285;BME280;60220;53.552;10.092;2023-05-23T04:58:21;101042.84;;;16.27;82.30
72285;BME280;60220;53.552;10.092;2023-05-23T05:00:48;101039.16;;;16.31;82.64
72285;BME280;60220;53.552;10.092;2023-05-23T05:03:17;101044.75;;;16.77;80.99
72285;BME280;60220;53.552;10.092;2023-05-23T05:05:45;101044.75;;;16.77;80.22
72285;BME280;60220;53.552;10.092;2023-05-23T05:08:12;101041.53;;;16.40;81.43
72285;BME280;60220;53.552;10.092;2023-05-23T05:10:40;101046.63;;;16.46;81.55
72285;BME280;60220;53.552;10.092;2023-05-23T05:13:08;101052.44;;;16.85;80.91
72285;BME280;60220;53.552;10.092;2023-05-23T05:15:34;101050.25;;;16.71;80.80
72285;BME280;60220;53.552;10.092;2023-05-23T05:18:01;101045.72;;;17.00;80.04
72285;BME280;60220;53.552;10.092;2023-05-23T05:20:28;101041.31;;;16.74;79.83
72285;BME280;60220;53.552;10.092;2023-05-23T05:22:56;101046.78;;;16.69;79.74
72285;BME280;60220;53.552;10.092;2023-05-23T05:25:23;101052.19;;;16.66;80.89
72285;BME280;60220;53.552;10.092;2023-05-23T05:27:51;101055.59;;;16.96;80.31
72285;BME280;60220;53.552;10.092;2023-05-23T05:30:19;101050.25;;;16.71;80.22
72285;BME280;60220;53.552;10.092;2023-05-23T05:32:46;101055.00;;;16.88;79.52
72285;BME280;60220;53.552;10.092;2023-05-23T05:35:13;101045.91;;;16.69;81.38
72285;BME280;60220;53.552;10.092;2023-05-23T05:37:41;101048.34;;;17.01;80.31
72285;BME280;60220;53.552;10.092;2023-05-23T05:40:08;101042.59;;;16.62;81.30
72285;BME280;60220;53.552;10.092;2023-05-23T05:42:36;101049.97;;;16.53;82.21
72285;BME280;60220;53.552;10.092;2023-05-23T05:45:03;101055.78;;;16.90;81.27
72285;BME280;60220;53.552;10.092;2023-05-23T05:47:32;101043.94;;;17.00;80.61
72285;BME280;60220;53.552;10.092;2023-05-23T05:49:58;101056.19;;;17.29;80.11
72285;BME280;60220;53.552;10.092;2023-05-23T05:52:25;101055.78;;;17.40;79.78
72285;BME280;60220;53.552;10.092;2023-05-23T05:54:52;101052.28;;;16.35;81.60
72285;BME280;60220;53.552;10.092;2023-05-23T05:57:21;101053.53;;;16.52;82.68
72285;BME280;60220;53.552;10.092;2023-05-23T05:59:48;101056.00;;;17.09;80.85
72285;BME280;60220;53.552;10.092;2023-05-23T06:02:15;101055.94;;;17.12;81.01
72285;BME280;60220;53.552;10.092;2023-05-23T06:04:42;101058.91;;;17.52;79.61
72285;BME280;60220;53.552;10.092;2023-05-23T06:07:09;101060.78;;;17.49;77.96
72285;BME280;60220;53.552;10.092;2023-05-23T06:09:36;101061.22;;;17.12;79.34
72285;BME280;60220;53.552;10.092;2023-05-23T06:12:02;101057.94;;;16.79;80.07
72285;BME280;60220;53.552;10.092;2023-05-23T06:14:29;101061.59;;;17.01;80.37
72285;BME280;60220;53.552;10.092;2023-05-23T06:16:56;101068.34;;;16.57;81.31
72285;BME280;60220;53.552;10.092;2023-05-23T06:19:22;101078.78;;;17.16;80.28
72285;BME280;60220;53.552;10.092;2023-05-23T06:21:50;101075.66;;;16.78;80.85
72285;BME280;60220;53.552;10.092;2023-05-23T06:24:17;101077.16;;;17.12;80.26
72285;BME280;60220;53.552;10.092;2023-05-23T06:26:44;101077.34;;;17.55;79.96
72285;BME280;60220;53.552;10.092;2023-05-23T06:29:11;101082.13;;;17.71;78.46
72285;BME280;60220;53.552;10.092;2023-05-23T06:31:40;101079.75;;;17.38;79.06
72285;BME280;60220;53.552;10.092;2023-05-23T06:34:07;101075.94;;;17.20;80.07
72285;BME280;60220;53.552;10.092;2023-05-23T06:36:33;101079.00;;;17.59;78.33
72285;BME280;60220;53.552;10.092;2023-05-23T06:39:02;101080.81;;;17.82;77.39
72285;BME280;60220;53.552;10.092;2023-05-23T06:41:29;101089.63;;;17.59;77.39
72285;BME280;60220;53.552;10.092;2023-05-23T06:43:58;101080.22;;;17.00;79.97
72285;BME280;60220;53.552;10.092;2023-05-23T06:46:26;101084.03;;;17.42;79.87
72285;BME280;60220;53.552;10.092;2023-05-23T06:48:53;101093.59;;;17.21;79.92
72285;BME280;60220;53.552;10.092;2023-05-23T06:51:20;101082.41;;;16.61;81.80
72285;BME280;60220;53.552;10.092;2023-05-23T06:53:46;101086.22;;;17.05;81.37
72285;BME280;60220;53.552;10.092;2023-05-23T06:56:16;101088.66;;;17.11;81.55
72285;BME280;60220;53.552;10.092;2023-05-23T06:58:43;101094.09;;;17.33;80.24
72285;BME280;60220;53.552;10.092;2023-05-23T07:01:12;101094.16;;;17.31;80.05
72285;BME280;60220;53.552;10.092;2023-05-23T07:03:39;101095.72;;;17.12;80.12
72285;BME280;60220;53.552;10.092;2023-05-23T07:06:10;101100.09;;;17.13;80.04
72285;BME280;60220;53.552;10.092;2023-05-23T07:08:38;101103.78;;;17.34;79.63
72285;BME280;60220;53.552;10.092;2023-05-23T07:11:05;101109.44;;;16.98;81.22
72285;BME280;60220;53.552;10.092;2023-05-23T07:13:33;101109.06;;;17.09;80.87
72285;BME280;60220;53.552;10.092;2023-05-23T07:16:02;101105.59;;;16.81;81.31
72285;BME280;60220;53.552;10.092;2023-05-23T07:18:29;101107.38;;;17.33;80.59
72285;BME280;60220;53.552;10.092;2023-05-23T07:20:58;101098.34;;;17.38;79.44
72285;BME280;60220;53.552;10.092;2023-05-23T07:23:24;101116.44;;;17.01;80.37
72285;BME280;60220;53.552;10.092;2023-05-23T07:25:51;101115.69;;;16.69;80.46
72285;BME280;60220;53.552;10.092;2023-05-23T07:28:19;101122.22;;;16.86;80.50
72285;BME280;60220;53.552;10.092;2023-05-23T07:30:50;101124.59;;;16.10;81.88
72285;BME280;60220;53.552;10.092;2023-05-23T07:33:16;101126.44;;;16.08;81.39
72285;BME280;60220;53.552;10.092;2023-05-23T07:35:43;101125.50;;;16.38;81.49
72285;BME280;60220;53.552;10.092;2023-05-23T07:38:10;101127.63;;;16.55;80.46
72285;BME280;60220;53.552;10.092;2023-05-23T07:40:36;101136.28;;;16.32;79.91
72285;BME280;60220;53.552;10.092;2023-05-23T07:43:04;101148.66;;;16.31;79.97
72285;BME280;60220;53.552;10.092;2023-05-23T07:45:31;101142.66;;;16.54;79.68
72285;BME280;60220;53.552;10.092;2023-05-23T07:48:01;101146.28;;;16.52;79.76
72285;BME280;60220;53.552;10.092;2023-05-23T07:50:28;101150.41;;;16.03;79.69
72285;BME280;60220;53.552;10.092;2023-05-23T07:52:55;101146.25;;;16.81;78.53
72285;BME280;60220;53.552;10.092;2023-05-23T07:55:22;101149.97;;;16.46;78.27
72285;BME280;60220;53.552;10.092;2023-05-23T07:57:49;101154.88;;;16.88;78.36
72285;BME280;60220;53.552;10.092;2023-05-23T08:00:17;101148.16;;;16.77;77.80
72285;BME280;60220;53.552;10.092;2023-05-23T08:02:44;101156.72;;;17.12;76.16
72285;BME280;60220;53.552;10.092;2023-05-23T08:05:12;101154.47;;;17.26;76.71
72285;BME280;60220;53.552;10.092;2023-05-23T08:07:39;101167.78;;;17.25;75.67
72285;BME280;60220;53.552;10.092;2023-05-23T08:10:07;101172.59;;;16.58;77.36
72285;BME280;60220;53.552;10.092;2023-05-23T08:12:33;101162.22;;;17.06;76.28
72285;BME280;60220;53.552;10.092;2023-05-23T08:15:00;101159.75;;;17.28;75.48
72285;BME280;60220;53.552;10.092;2023-05-23T08:17:28;101166.50;;;17.10;74.78
72285;BME280;60220;53.552;10.092;2023-05-23T08:19:55;101171.75;;;16.56;75.73
72285;BME280;60220;53.552;10.092;2023-05-23T08:22:23;101172.00;;;16.48;75.64
72285;BME280;60220;53.552;10.092;2023-05-23T08:24:50;101181.75;;;16.77;75.06
72285;BME280;60220;53.552;10.092;2023-05-23T08:27:19;101191.13;;;16.59;75.55
72285;BME280;60220;53.552;10.092;2023-05-23T08:29:45;101195.13;;;16.72;74.81
72285;BME280;60220;53.552;10.092;2023-05-23T08:32:14;101197.91;;;16.96;74.72
72285;BME280;60220;53.552;10.092;2023-05-23T08:34:41;101199.06;;;16.59;75.28
72285;BME280;60220;53.552;10.092;2023-05-23T08:37:10;101196.72;;;15.88;76.49
72285;BME280;60220;53.552;10.092;2023-05-23T08:39:38;101206.78;;;16.07;78.19
72285;BME280;60220;53.552;10.092;2023-05-23T08:42:06;101204.88;;;15.79;77.87
72285;BME280;60220;53.552;10.092;2023-05-23T08:44:35;101205.97;;;15.72;77.27
72285;BME280;60220;53.552;10.092;2023-05-23T08:47:07;101212.19;;;16.04;76.42
72285;BME280;60220;53.552;10.092;2023-05-23T08:49:34;101213.16;;;16.00;76.30
72285;BME280;60220;53.552;10.092;2023-05-23T08:52:01;101214.94;;;16.30;75.37
72285;BME280;60220;53.552;10.092;2023-05-23T08:54:31;101218.47;;;15.67;75.99
72285;BME280;60220;53.552;10.092;2023-05-23T08:57:00;101215.41;;;15.48;76.64
72285;BME280;60220;53.552;10.092;2023-05-23T08:59:28;101234.09;;;15.41;76.78
72285;BME280;60220;53.552;10.092;2023-05-23T09:01:55;101230.69;;;15.36;78.19
72285;BME280;60220;53.552;10.092;2023-05-23T09:04:22;101228.94;;;15.35;77.46
72285;BME280;60220;53.552;10.092;2023-05-23T09:06:49;101237.75;;;15.72;78.21
72285;BME280;60220;53.552;10.092;2023-05-23T09:09:18;101237.13;;;15.61;77.53
72285;BME280;60220;53.552;10.092;2023-05-23T09:11:45;101251.97;;;16.01;78.64
72285;BME280;60220;53.552;10.092;2023-05-23T09:14:13;101250.41;;;15.93;77.99
72285;BME280;60220;53.552;10.092;2023-05-23T09:16:45;101257.75;;;15.82;79.54
72285;BME280;60220;53.552;10.092;2023-05-23T09:19:13;101262.72;;;15.61;80.21
72285;BME280;60220;53.552;10.092;2023-05-23T09:21:43;101267.88;;;15.99;79.53
72285;BME280;60220;53.552;10.092;2023-05-23T09:24:09;101266.53;;;15.49;80.00
72285;BME280;60220;53.552;10.092;2023-05-23T09:26:36;101281.88;;;14.98;81.98
72285;BME280;60220;53.552;10.092;2023-05-23T09:29:04;101288.94;;;14.96;83.50
72285;BME280;60220;53.552;10.092;2023-05-23T09:31:33;101288.78;;;15.03;85.17
72285;BME280;60220;53.552;10.092;2023-05-23T09:33:59;101298.19;;;14.32;85.89
72285;BME280;60220;53.552;10.092;2023-05-23T09:36:30;101301.88;;;14.23;86.82
72285;BME280;60220;53.552;10.092;2023-05-23T09:39:01;101298.38;;;14.68;85.63
72285;BME280;60220;53.552;10.092;2023-05-23T09:41:29;101298.25;;;14.74;84.82
72285;BME280;60220;53.552;10.092;2023-05-23T09:43:58;101303.34;;;14.40;84.89
72285;BME280;60220;53.552;10.092;2023-05-23T09:46:27;101305.03;;;14.44;84.39
72285;BME280;60220;53.552;10.092;2023-05-23T09:48:56;101320.97;;;14.82;84.54
72285;BME280;60220;53.552;10.092;2023-05-23T09:51:24;101319.13;;;14.44;84.72
72285;BME280;60220;53.552;10.092;2023-05-23T09:53:54;101315.47;;;14.50;83.73
72285;BME280;60220;53.552;10.092;2023-05-23T09:56:28;101322.69;;;14.42;84.38
72285;BME280;60220;53.552;10.092;2023-05-23T09:58:56;101321.28;;;14.21;84.37
72285;BME280;60220;53.552;10.092;2023-05-23T10:01:27;101327.06;;;13.94;84.73
72285;BME280;60220;53.552;10.092;2023-05-23T10:03:57;101327.09;;;13.91;86.02
72285;BME280;60220;53.552;10.092;2023-05-23T10:06:26;101335.06;;;13.89;84.79
72285;BME280;60220;53.552;10.092;2023-05-23T10:08:56;101340.63;;;14.69;82.70
72285;BME280;60220;53.552;10.092;2023-05-23T10:14:34;101336.84;;;14.35;83.36
72285;BME280;60220;53.552;10.092;2023-05-23T10:17:06;101346.50;;;14.83;81.75
72285;BME280;60220;53.552;10.092;2023-05-23T10:19:39;101343.09;;;14.78;81.30
72285;BME280;60220;53.552;10.092;2023-05-23T10:22:09;101351.53;;;14.95;80.49
72285;BME280;60220;53.552;10.092;2023-05-23T10:24:40;101361.28;;;14.49;80.46
72285;BME280;60220;53.552;10.092;2023-05-23T10:27:10;101355.13;;;13.99;81.91
72285;BME280;60220;53.552;10.092;2023-05-23T10:29:38;101358.56;;;14.04;81.69
72285;BME280;60220;53.552;10.092;2023-05-23T10:32:06;101372.22;;;14.28;81.35
72285;BME280;60220;53.552;10.092;2023-05-23T10:34:40;101370.84;;;14.05;81.17
72285;BME280;60220;53.552;10.092;2023-05-23T10:37:20;101379.88;;;13.92;82.59
72285;BME280;60220;53.552;10.092;2023-05-23T10:39:56;101383.22;;;14.03;80.43
72285;BME280;60220;53.552;10.092;2023-05-23T10:42:33;101373.75;;;14.41;79.00
72285;BME280;60220;53.552;10.092;2023-05-23T10:45:16;101380.59;;;14.03;79.60
72285;BME280;60220;53.552;10.092;2023-05-23T10:47:43;101391.59;;;14.28;78.81
72285;BME280;60220;53.552;10.092;2023-05-23T10:50:29;101383.16;;;14.06;78.87
72285;BME280;60220;53.552;10.092;2023-05-23T10:52:58;101398.81;;;14.18;78.28
72285;BME280;60220;53.552;10.092;2023-05-23T10:55:30;101399.59;;;14.23;77.18
72285;BME280;60220;53.552;10.092;2023-05-23T10:58:10;101390.13;;;14.59;75.34
72285;BME280;60220;53.552;10.092;2023-05-23T11:00:37;101395.19;;;14.72;76.03
72285;BME280;60220;53.552;10.092;2023-05-23T11:03:04;101392.44;;;14.76;75.81
72285;BME280;60220;53.552;10.092;2023-05-23T11:05:34;101390.41;;;14.90;75.30
72285;BME280;60220;53.552;10.092;2023-05-23T11:08:09;101385.72;;;14.60;75.60
72285;BME280;60220;53.552;10.092;2023-05-23T11:10:52;101402.94;;;14.81;74.73
72285;BME280;60220;53.552;10.092;2023-05-23T11:13:19;101399.28;;;14.86;74.01
72285;BME280;60220;53.552;10.092;2023-05-23T11:15:47;101403.09;;;14.73;73.84
72285;BME280;60220;53.552;10.092;2023-05-23T11:18:20;101409.97;;;14.80;73.49
72285;BME280;60220;53.552;10.092;2023-05-23T11:20:51;101421.63;;;14.70;73.28
72285;BME280;60220;53.552;10.092;2023-05-23T11:23:18;101416.22;;;13.75;73.02
72285;BME280;60220;53.552;10.092;2023-05-23T11:25:48;101416.53;;;14.10;71.64
72285;BME280;60220;53.552;10.092;2023-05-23T11:28:15;101424.13;;;14.79;69.49
72285;BME280;60220;53.552;10.092;2023-05-23T11:30:42;101413.41;;;14.85;68.33
72285;BME280;60220;53.552;10.092;2023-05-23T11:33:14;101417.91;;;14.80;67.78
72285;BME280;60220;53.552;10.092;2023-05-23T11:35:42;101417.94;;;15.22;67.90
72285;BME280;60220;53.552;10.092;2023-05-23T11:38:10;101427.97;;;15.47;66.28
72285;BME280;60220;53.552;10.092;2023-05-23T11:40:38;101415.16;;;14.86;67.01
72285;BME280;60220;53.552;10.092;2023-05-23T11:43:09;101418.16;;;14.68;65.08
72285;BME280;60220;53.552;10.092;2023-05-23T11:45:37;101427.28;;;14.96;65.26
72285;BME280;60220;53.552;10.092;2023-05-23T11:48:08;101426.22;;;15.05;64.95
72285;BME280;60220;53.552;10.092;2023-05-23T11:50:43;101431.88;;;16.07;63.22
72285;BME280;60220;53.552;10.092;2023-05-23T11:53:17;101430.50;;;15.92;63.08
72285;BME280;60220;53.552;10.092;2023-05-23T11:55:52;101435.59;;;16.00;63.66
72285;BME280;60220;53.552;10.092;2023-05-23T11:58:20;101445.31;;;15.99;63.15
72285;BME280;60220;53.552;10.092;2023-05-23T12:00:47;101441.19;;;15.06;65.16
72285;BME280;60220;53.552;10.092;2023-05-23T12:03:13;101429.81;;;15.44;66.21
72285;BME280;60220;53.552;10.092;2023-05-23T12:05:42;101436.47;;;15.20;65.42
72285;BME280;60220;53.552;10.092;2023-05-23T12:08:10;101433.28;;;15.46;63.96
72285;BME280;60220;53.552;10.092;2023-05-23T12:10:48;101438.53;;;15.06;64.15
72285;BME280;60220;53.552;10.092;2023-05-23T12:13:14;101442.44;;;14.88;62.89
72285;BME280;60220;53.552;10.092;2023-05-23T12:15:41;101452.31;;;15.22;62.11
72285;BME280;60220;53.552;10.092;2023-05-23T12:18:08;101451.00;;;15.01;61.52
72285;BME280;60220;53.552;10.092;2023-05-23T12:20:40;101453.91;;;14.87;60.67
72285;BME280;60220;53.552;10.092;2023-05-23T12:23:17;101457.63;;;15.22;60.85
72285;BME280;60220;53.552;10.092;2023-05-23T12:25:48;101453.03;;;14.88;59.87
72285;BME280;60220;53.552;10.092;2023-05-23T12:28:16;101468.97;;;15.27;58.05
72285;BME280;60220;53.552;10.092;2023-05-23T12:30:45;101445.88;;;15.35;57.80
72285;BME280;60220;53.552;10.092;2023-05-23T12:33:17;101456.41;;;15.78;57.66
72285;BME280;60220;53.552;10.092;2023-05-23T12:35:44;101454.47;;;15.44;57.58
72285;BME280;60220;53.552;10.092;2023-05-23T12:38:14;101460.06;;;15.74;57.68
72285;BME280;60220;53.552;10.092;2023-05-23T12:40:42;101469.34;;;15.91;57.14
72285;BME280;60220;53.552;10.092;2023-05-23T12:43:10;101468.13;;;16.05;55.77
72285;BME280;60220;53.552;10.092;2023-05-23T12:45:37;101458.97;;;16.53;56.40
72285;BME280;60220;53.552;10.092;2023-05-23T12:48:04;101460.06;;;15.74;56.44
72285;BME280;60220;53.552;10.092;2023-05-23T12:50:31;101459.41;;;15.63;55.85